Погода Коррентинана неделю

Баия, Бразилия

24 - 30 мая
  • 24мая
    Сегодня
    +18°
    +33°
    Ясно и безоблачно
    ВремяПогодаТемператураВлажностьДавлениеВетер, м/сВероятность осадков
    00:00Ясно и безоблачно+22°C62 %713 мм1.7 м/с5 %
    03:00Ясно и безоблачно+20°C68 %712 мм0.5 м/с5 %
    06:00Ясно и безоблачно+20°C78 %713 мм1.7 м/с5 %
    09:00Ясно и безоблачно+26°C59 %715 мм2.3 м/с5 %
    12:00Ясно и безоблачно+31°C41 %714 мм2.2 м/с5 %
    15:00Ясно и безоблачно+32°C38 %712 мм1.6 м/с5 %
    18:00Ясно и безоблачно+28°C49 %712 мм1.4 м/с5 %
    21:00Ясно и безоблачно+25°C62 %713 мм1.9 м/с5 %
  • 25мая
    Суббота
    +19°
    +33°
    Облачно с прояснениями
    ВремяПогодаТемператураВлажностьДавлениеВетер, м/сВероятность осадков
    00:00Ясно и безоблачно+23°C55 %713 мм0.9 м/с5 %
    03:00Ясно и безоблачно+20°C74 %712 мм1.8 м/с5 %
    06:00Ясно и безоблачно+19°C78 %712 мм1.7 м/с5 %
    09:00Небольшая облачность+27°C56 %715 мм1.6 м/с5 %
    12:00Небольшая облачность+31°C36 %714 мм2.3 м/с5 %
    15:00Облачно с прояснениями+32°C31 %712 мм1.9 м/с5 %
    18:00Облачно с прояснениями+28°C46 %712 мм2.1 м/с5 %
    21:00Практически безоблачно+25°C59 %713 мм1.9 м/с5 %
  • 26мая
    Воскресенье
    +20°
    +33°
    Практически безоблачно
    ВремяПогодаТемператураВлажностьДавлениеВетер, м/сВероятность осадков
    00:00Ясно и безоблачно+22°C69 %712 мм1.9 м/с5 %
    03:00Облачно с прояснениями+21°C72 %712 мм1.7 м/с5 %
    06:00Облачно с прояснениями+20°C75 %713 мм1.9 м/с5 %
    09:00Практически безоблачно+27°C52 %715 мм2.3 м/с5 %
    12:00Небольшая облачность+31°C37 %714 мм2.4 м/с3 %
    15:00Практически безоблачно+32°C30 %712 мм2.1 м/с5 %
    18:00Практически безоблачно+27°C39 %712 мм2.0 м/с5 %
    21:00Ясно и безоблачно+24°C50 %713 мм1.0 м/с5 %
  • 27мая
    Понедельник
    +19°
    +33°
    Небольшая облачность
    ВремяПогодаТемператураВлажностьДавлениеВетер, м/сВероятность осадков
    00:00Ясно и безоблачно+24°C59 %714 мм2.0 м/с5 %
    03:00Ясно и безоблачно+22°C78 %713 мм1.7 м/с5 %
    06:00Ясно и безоблачно+21°C90 %713 мм1.6 м/с5 %
    09:00Практически безоблачно+27°C66 %716 мм2.7 м/с5 %
    12:00Небольшая облачность+31°C45 %715 мм2.6 м/с5 %
    15:00Небольшая облачность+33°C37 %713 мм1.8 м/с5 %
    18:00Ясно и безоблачно+28°C46 %713 мм0.2 м/с5 %
    21:00Ясно и безоблачно+25°C59 %713 мм1.8 м/с5 %
Мы используем cookies
Соглашаюсь